Latest Coastal Weather Observations for Bedout Island

IDW60701

Issued at 3:45 am WST Saturday 23 August 2014 (issued every 10 minutes, with the page automatically refreshed every 10 minutes)

About coastal observations | Map of coastal stations | Coastal observations for WA | Marine services | Other Formats
Station Details ID: 004100 Name: BEDOUT ISLAND Lat: -19.59 Lon: 119.10 Height: 8.6 m
Data from the previous 72 hours. | See also: Recent months for locations in Western Australia
Date/Time
WST
Temp

°C
Wind Pressure Rain
since 9am
mm
Weather Cloud Vis
km
Sea
Height
m
Swell
Dir
 
Speed
knots
Gust
knots
hPa Trend Height
m
Period
s
Dir
23/03:30am 18.6 SE 9 10 1016.3 - - - - - - - - -
23/03:00am 18.4 SE 9 11 1016.1 - - - - - - - - -
23/02:30am 18.3 SSE 10 11 1016.4 - - - - - - - - -
23/02:00am 19.2 SE 10 12 1016.5 - - - - - - - - -
23/01:30am 19.6 SE 10 11 1016.6 - - - - - - - - -
23/01:00am 19.9 SE 12 14 1016.8 - - - - - - - - -
23/12:30am 20.1 S 10 11 1016.7 - - - - - - - - -
23/12:00am 19.9 SW 6 9 1016.5 - - - - - - - - -
 
Date/Time
WST
Temp

°C
Wind Pressure Rain
since 9am
mm
Weather Cloud Vis
km
Sea
Height
m
Swell
Dir
 
Speed
knots
Gust
knots
hPa Trend Height
m
Period
s
Dir
22/11:30pm 20.4 W 5 5 1016.5 - - - - - - - - -
22/11:00pm 20.5 W 5 6 1016.7 - - - - - - - - -
22/10:30pm 20.9 W 4 5 1016.8 - - - - - - - - -
22/10:00pm 20.6 W 5 6 1016.8 - - - - - - - - -
22/09:30pm 20.7 WNW 5 6 1016.8 - - - - - - - - -
22/09:00pm 21.3 WNW 4 4 1016.8 - - - - - - - - -
22/08:30pm 21.6 NW 3 4 1016.9 - - - - - - - - -
22/08:00pm 21.7 N 3 4 1016.7 - - - - - - - - -
22/07:30pm 21.6 N 2 4 1016.4 - - - - - - - - -
22/07:00pm 21.7 N 5 6 1016.0 - - - - - - - - -
22/06:30pm 21.8 N 7 8 1015.4 - - - - - - - - -
22/06:00pm 22.0 N 7 8 1015.1 - - - - - - - - -
22/05:30pm 22.8 NNE 6 7 1014.9 - - - - - - - - -
22/05:00pm 24.2 NNE 6 7 1014.6 - - - - - - - - -
22/04:30pm 25.0 NNE 6 7 1014.4 - - - - - - - - -
22/04:00pm 25.5 NNE 7 8 1014.3 - - - - - - - - -
22/03:30pm 26.1 NNE 7 8 1014.2 - - - - - - - - -
22/03:00pm 26.0 NE 8 9 1014.2 - - - - - - - - -
22/02:30pm 27.0 NE 6 7 1014.5 - - - - - - - - -
22/02:00pm 26.3 E 5 6 1014.5 - - - - - - - - -
22/01:30pm 26.1 E 5 5 1014.7 - - - - - - - - -
22/01:00pm 25.5 E 5 6 1015.2 - - - - - - - - -
22/12:30pm 25.8 E 6 7 1015.6 - - - - - - - - -
22/12:00pm 25.9 ESE 6 6 1015.9 - - - - - - - - -
22/11:30am 25.4 ESE 7 7 1016.4 - - - - - - - - -
22/11:00am 25.5 ESE 7 8 1016.8 - - - - - - - - -
22/10:30am 25.0 ESE 7 9 1017.1 - - - - - - - - -
22/10:00am 24.3 SE 7 9 1017.3 - - - - - - - - -
22/09:30am 23.7 SSE 7 8 1017.5 - - - - - - - - -
22/09:00am 22.9 SSE 7 8 1017.3 - - - - - - - - -
22/08:30am 21.8 S 8 9 1017.3 - - - - - - - - -
22/08:00am 21.1 S 9 11 1017.1 - - - - - - - - -
22/07:30am 20.0 S 9 11 1016.9 - - - - - - - - -
22/07:00am 19.5 S 8 9 1016.6 - - - - - - - - -
22/06:30am 18.9 S 8 9 1016.2 - - - - - - - - -
22/06:00am 19.0 S 9 11 1015.9 - - - - - - - - -
22/05:30am 19.1 SSW 10 11 1015.6 - - - - - - - - -
22/05:00am 19.6 SSW 10 12 1015.2 - - - - - - - - -
22/04:30am 19.6 SSW 12 14 1014.9 - - - - - - - - -
22/04:00am 19.5 SSW 11 14 1014.8 - - - - - - - - -
22/03:30am 20.0 SSW 13 16 1014.7 - - - - - - - - -
22/03:00am 20.3 SSW 15 18 1014.5 - - - - - - - - -
22/02:30am 20.3 SW 15 18 1014.6 - - - - - - - - -
22/02:00am 20.2 SSW 14 16 1014.9 - - - - - - - - -
22/01:30am 20.5 SW 13 16 1014.9 - - - - - - - - -
22/01:00am 20.0 SSW 6 6 1015.0 - - - - - - - - -
22/12:30am 20.6 W 5 6 1015.2 - - - - - - - - -
22/12:00am 20.5 W 7 7 1015.3 - - - - - - - - -
 
Date/Time
WST
Temp

°C
Wind Pressure Rain
since 9am
mm
Weather Cloud Vis
km
Sea
Height
m
Swell
Dir
 
Speed
knots
Gust
knots
hPa Trend Height
m
Period
s
Dir
21/11:30pm 20.2 WNW 5 6 1015.6 - - - - - - - - -
21/11:00pm 20.4 WNW 4 5 1015.7 - - - - - - - - -
21/10:30pm 20.3 WNW 5 6 1015.8 - - - - - - - - -
21/10:00pm 20.3 W 7 8 1015.9 - - - - - - - - -
21/09:30pm 20.2 W 5 6 1016.0 - - - - - - - - -
21/09:00pm 20.3 W 5 5 1016.1 - - - - - - - - -
21/08:30pm 20.5 W 4 5 1016.1 - - - - - - - - -
21/08:00pm 20.5 W 5 5 1016.0 - - - - - - - - -
21/07:30pm 20.3 WNW 5 6 1015.8 - - - - - - - - -
21/07:00pm 20.3 WNW 5 6 1015.4 - - - - - - - - -
21/06:30pm 20.4 WNW 6 6 1015.0 - - - - - - - - -
21/06:00pm 20.8 WNW 6 7 1014.6 - - - - - - - - -
21/05:30pm 22.4 WNW 6 6 1014.5 - - - - - - - - -
21/05:00pm 23.5 WNW 7 8 1014.6 - - - - - - - - -
21/04:30pm 24.2 W 7 8 1014.5 - - - - - - - - -
21/04:00pm 24.5 W 7 8 1014.3 - - - - - - - - -
21/03:30pm 24.5 W 8 9 1014.4 - - - - - - - - -
21/03:00pm 24.6 W 7 8 1014.2 - - - - - - - - -
21/02:30pm 24.7 W 7 8 1014.4 - - - - - - - - -
21/02:00pm 24.4 W 6 8 1014.5 - - - - - - - - -
21/01:30pm 24.0 W 4 6 1014.7 - - - - - - - - -
21/01:00pm 24.5 WSW 4 5 1015.1 - - - - - - - - -
21/12:30pm 24.1 E 5 6 1015.4 - - - - - - - - -
21/12:00pm 23.4 E 4 5 1015.6 - - - - - - - - -
21/11:30am 23.0 E 5 6 1016.1 - - - - - - - - -
21/11:00am 23.0 E 5 7 1016.6 - - - - - - - - -
21/10:30am 22.7 SE 5 6 1016.8 - - - - - - - - -
21/10:00am 22.2 SE 5 7 1017.0 - - - - - - - - -
21/09:30am 21.3 SE 5 6 1016.9 - - - - - - - - -
21/09:00am 20.1 S 6 8 1016.7 - - - - - - - - -
21/08:30am 19.3 S 6 7 1016.7 - - - - - - - - -
21/08:00am 19.1 S 6 7 1016.3 - - - - - - - - -
21/07:30am 18.4 S 7 10 1016.0 - - - - - - - - -
21/07:00am 17.7 S 10 12 1016.0 - - - - - - - - -
21/06:30am 17.6 SSW 11 16 1015.5 - - - - - - - - -
21/06:00am 17.8 SSW 14 18 1014.9 - - - - - - - - -
21/05:30am 18.6 SSW 13 16 1014.6 - - - - - - - - -
21/05:00am 18.6 SSW 15 17 1014.3 - - - - - - - - -
21/04:30am 18.6 SSW 15 17 1014.1 - - - - - - - - -
21/04:00am 18.5 S 14 16 1014.1 - - - - - - - - -
21/03:30am 18.9 S 13 16 1014.0 - - - - - - - - -
21/03:00am 19.3 S 11 14 1014.0 - - - - - - - - -
21/02:30am 20.1 SW 9 10 1014.2 - - - - - - - - -
21/02:00am 19.7 SW 7 8 1014.4 - - - - - - - - -
21/01:30am 19.8 WSW 6 7 1014.5 - - - - - - - - -
21/01:00am 19.7 WSW 6 7 1014.8 - - - - - - - - -
21/12:30am 19.6 W 6 7 1015.0 - - - - - - - - -
21/12:00am 19.6 W 6 7 1015.2 - - - - - - - - -
 
Date/Time
WST
Temp

°C
Wind Pressure Rain
since 9am
mm
Weather Cloud Vis
km
Sea
Height
m
Swell
Dir
 
Speed
knots
Gust
knots
hPa Trend Height
m
Period
s
Dir
20/11:30pm 19.8 W 5 6 1015.4 - - - - - - - - -
20/11:00pm 19.6 W 5 6 1015.5 - - - - - - - - -
20/10:30pm 19.9 W 5 6 1015.6 - - - - - - - - -
20/10:00pm 19.6 W 6 6 1015.7 - - - - - - - - -
20/09:30pm 19.8 W 5 6 1015.9 - - - - - - - - -
20/09:00pm 20.3 W 4 5 1015.9 - - - - - - - - -
20/08:30pm 20.7 NW 4 4 1015.9 - - - - - - - - -
20/08:00pm 20.5 NNW 3 4 1015.8 - - - - - - - - -
20/07:30pm 20.3 NW 4 5 1015.5 - - - - - - - - -
20/07:00pm 21.0 N 1 4 1015.1 - - - - - - - - -
20/06:30pm 21.3 NW 3 4 1015.0 - - - - - - - - -
20/06:00pm 21.2 NW 3 4 1014.7 - - - - - - - - -
20/05:30pm 22.6 NW 3 4 1014.7 - - - - - - - - -
20/05:00pm 23.7 NW 4 5 1014.6 - - - - - - - - -
20/04:30pm 24.4 N 4 5 1014.6 - - - - - - - - -
20/04:00pm 24.8 WNW 5 6 1014.4 - - - - - - - - -
20/03:30pm 25.2 WNW 4 5 1014.4 - - - - - - - - -
20/03:00pm 25.1 NW 4 6 1014.4 - - - - - - - - -
20/02:30pm 24.5 NW 5 6 1014.7 - - - - - - - - -
20/02:00pm 24.9 NW 6 7 1015.2 - - - - - - - - -
20/01:30pm 24.6 NW 6 7 1015.6 - - - - - - - - -
20/01:00pm 24.3 W 6 7 1016.0 - - - - - - - - -
20/12:30pm 24.3 W 5 6 1016.5 - - - - - - - - -
20/12:00pm 23.9 WSW 4 5 1016.7 - - - - - - - - -
20/11:30am 23.9 W 3 5 1017.2 - - - - - - - - -
20/11:00am 24.0 SSW 4 6 1017.4 - - - - - - - - -
20/10:30am 23.3 SSE 4 6 1017.7 - - - - - - - - -
20/10:00am 22.7 SSE 5 6 1017.8 - - - - - - - - -
20/09:30am 22.2 SE 5 6 1017.9 - - - - - - - - -
20/09:00am 21.8 ESE 5 6 1017.6 - - - - - - - - -
20/08:30am 21.1 ESE 6 7 1017.3 - - - - - - - - -
20/08:00am 20.1 ESE 7 8 1017.3 - - - - - - - - -
20/07:30am 18.9 SSE 8 11 1016.9 - - - - - - - - -
20/07:00am 18.4 SE 7 8 1016.6 - - - - - - - - -
20/06:30am 18.2 SE 7 9 1016.4 - - - - - - - - -
20/06:00am 18.5 SE 6 8 1016.0 - - - - - - - - -
20/05:30am 18.3 SE 5 6 1015.7 - - - - - - - - -
20/05:00am 18.3 S 5 6 1015.7 - - - - - - - - -
20/04:30am 18.7 SSW 6 7 1015.6 - - - - - - - - -
20/04:00am 18.9 SW 7 8 1015.3 - - - - - - - - -

Other Formats:

Comma delimited format used in spreadsheet applications
http://www.bom.gov.au/fwo/IDW60701/IDW60701.94310.axf

JavaScript Object Notation format (JSON) in row-major order
http://www.bom.gov.au/fwo/IDW60701/IDW60701.94310.json